createdAt,value
2017-03-19T00:00:01.949Z,8.7
2017-03-19T00:05:01.501Z,8.7
2017-03-19T00:10:01.336Z,8.7
2017-03-19T00:15:02.145Z,8.6
2017-03-19T00:20:02.156Z,8.7
2017-03-19T00:25:02.139Z,8.8
2017-03-19T00:30:01.853Z,8.7
2017-03-19T00:35:01.868Z,8.8
2017-03-19T00:40:01.680Z,8.8
2017-03-19T00:45:01.685Z,8.8
2017-03-19T00:50:01.376Z,8.8
2017-03-19T00:55:02.064Z,8.8
2017-03-19T01:00:01.990Z,8.8
2017-03-19T01:05:01.722Z,8.8
2017-03-19T01:10:01.489Z,8.9
2017-03-19T01:15:01.383Z,8.8
2017-03-19T01:20:01.233Z,8.8
2017-03-19T01:25:01.200Z,8.8
2017-03-19T01:30:01.214Z,8.8
2017-03-19T01:35:01.960Z,8.8
2017-03-19T01:40:02.074Z,8.8
2017-03-19T01:45:01.889Z,8.9
2017-03-19T01:50:01.755Z,8.8
2017-03-19T01:55:01.547Z,8.8
2017-03-19T02:00:01.411Z,8.8
2017-03-19T02:05:02.166Z,8.9
2017-03-19T02:10:01.269Z,8.9
2017-03-19T02:15:01.940Z,8.9
2017-03-19T02:20:01.626Z,9
2017-03-19T02:25:01.377Z,9
2017-03-19T02:30:02.150Z,8.9
2017-03-19T02:35:01.718Z,9
2017-03-19T02:40:01.690Z,9
2017-03-19T02:45:01.523Z,9
2017-03-19T02:50:02.016Z,9
2017-03-19T02:55:01.753Z,9.1
2017-03-19T03:00:01.595Z,9.1
2017-03-19T03:05:01.477Z,9.2
2017-03-19T03:10:01.270Z,9.2
2017-03-19T03:15:02.059Z,9.2
2017-03-19T03:20:01.966Z,9.2
2017-03-19T03:25:01.364Z,9.2
2017-03-19T03:30:01.725Z,9.2
2017-03-19T03:35:01.288Z,9.2
2017-03-19T03:40:01.408Z,9.2
2017-03-19T03:45:02.136Z,9.2
2017-03-19T03:50:01.251Z,9.2
2017-03-19T03:55:01.414Z,9.3
2017-03-19T04:00:01.715Z,9.3
2017-03-19T04:05:01.238Z,9.2
2017-03-19T04:10:01.196Z,9.3
2017-03-19T04:15:01.871Z,9.2
2017-03-19T04:20:01.562Z,9.2
2017-03-19T04:25:01.258Z,9.3
2017-03-19T04:30:01.706Z,9.3
2017-03-19T04:35:01.217Z,9.2
2017-03-19T04:40:01.394Z,9.3
2017-03-19T04:45:01.760Z,9.3
2017-03-19T04:50:02.000Z,9.3
2017-03-19T04:55:01.840Z,9.2
2017-03-19T05:00:01.965Z,9.2
2017-03-19T05:05:02.024Z,9.2
2017-03-19T05:10:01.880Z,9.2
2017-03-19T05:15:01.303Z,9.2
2017-03-19T05:20:01.734Z,9.1
2017-03-19T05:25:01.803Z,9.1
2017-03-19T05:30:01.932Z,9.1
2017-03-19T05:35:01.441Z,9
2017-03-19T05:40:01.254Z,9.1
2017-03-19T05:45:01.648Z,9
2017-03-19T05:50:01.527Z,9
2017-03-19T05:55:01.542Z,9
2017-03-19T06:00:01.758Z,9
2017-03-19T06:05:02.029Z,8.8
2017-03-19T06:10:01.667Z,8.8
2017-03-19T06:15:01.847Z,8.8
2017-03-19T06:20:01.942Z,8.9
2017-03-19T06:25:01.840Z,8.9
2017-03-19T06:30:01.995Z,8.8
2017-03-19T06:35:01.285Z,8.8
2017-03-19T06:40:01.357Z,8.9
2017-03-19T06:45:01.928Z,8.8
2017-03-19T06:50:01.327Z,8.8
2017-03-19T06:55:02.019Z,8.8
2017-03-19T07:00:01.587Z,8.8
2017-03-19T07:05:01.747Z,8.6
2017-03-19T07:10:01.217Z,8.6
2017-03-19T07:15:01.926Z,8.7
2017-03-19T07:20:02.028Z,8.8
2017-03-19T07:25:02.055Z,8.7
2017-03-19T07:30:01.345Z,8.6
2017-03-19T07:35:02.002Z,8.7
2017-03-19T07:40:01.817Z,8.7
2017-03-19T07:45:01.686Z,8.7
2017-03-19T07:50:01.423Z,8.6
2017-03-19T07:55:02.139Z,8.5
2017-03-19T08:00:01.536Z,8.6
2017-03-19T08:05:01.208Z,8.6
2017-03-19T08:10:01.616Z,8.6
2017-03-19T08:15:01.585Z,8.7
2017-03-19T08:20:02.140Z,8.6
2017-03-19T08:25:01.275Z,8.6
2017-03-19T08:30:01.559Z,8.6
2017-03-19T08:35:01.466Z,8.6
2017-03-19T08:40:01.579Z,8.6
2017-03-19T08:45:01.226Z,8.7
2017-03-19T08:50:01.517Z,8.6
2017-03-19T08:55:02.086Z,8.6
2017-03-19T09:00:01.412Z,8.6
2017-03-19T09:05:01.566Z,8.6
2017-03-19T09:10:01.915Z,8.6
2017-03-19T09:15:01.365Z,8.6
2017-03-19T09:20:01.701Z,8.6
2017-03-19T09:25:01.749Z,8.6
2017-03-19T09:30:02.042Z,8.7
2017-03-19T09:35:01.528Z,8.6
2017-03-19T09:40:01.460Z,8.7
2017-03-19T09:45:01.213Z,8.6
2017-03-19T09:50:01.340Z,8.6
2017-03-19T09:55:01.674Z,8.8
2017-03-19T10:00:02.041Z,8.7
2017-03-19T10:05:01.905Z,8.8
2017-03-19T10:10:01.639Z,8.8
2017-03-19T10:15:02.135Z,8.8
2017-03-19T10:20:01.930Z,8.8
2017-03-19T10:25:01.792Z,8.8
2017-03-19T10:30:01.911Z,9
2017-03-19T10:35:01.670Z,8.9
2017-03-19T10:40:01.827Z,8.9
2017-03-19T10:45:01.597Z,9.1
2017-03-19T10:50:01.385Z,9
2017-03-19T10:55:02.167Z,8.9
2017-03-19T11:00:01.493Z,8.8
2017-03-19T11:05:02.055Z,9
2017-03-19T11:10:01.446Z,8.9
2017-03-19T11:15:02.076Z,9
2017-03-19T11:20:01.792Z,8.8
2017-03-19T11:25:02.061Z,8.9
2017-03-19T11:30:01.702Z,8.8
2017-03-19T11:35:02.176Z,8.8
2017-03-19T11:40:01.264Z,8.8
2017-03-19T11:45:01.535Z,8.8
2017-03-19T11:50:01.536Z,8.8
2017-03-19T11:55:02.108Z,8.8
2017-03-19T12:00:01.838Z,8.7
2017-03-19T12:05:01.875Z,8.6
2017-03-19T12:10:01.799Z,8.6
2017-03-19T12:15:02.136Z,8.6
2017-03-19T12:20:01.334Z,8.6
2017-03-19T12:25:01.411Z,8.8
2017-03-19T12:30:01.839Z,8.6
2017-03-19T12:35:02.125Z,8.6
2017-03-19T12:40:01.826Z,8.6
2017-03-19T12:45:01.296Z,8.7
2017-03-19T12:50:01.914Z,8.6
2017-03-19T12:55:01.442Z,8.6
2017-03-19T13:00:01.874Z,8.5
2017-03-19T13:05:01.860Z,8.7
2017-03-19T13:10:01.733Z,8.6
2017-03-19T13:15:02.189Z,8.6
2017-03-19T13:20:02.080Z,8.8
2017-03-19T13:25:02.149Z,8.6
2017-03-19T13:30:01.587Z,8.7
2017-03-19T13:35:01.205Z,8.7
2017-03-19T13:40:02.026Z,8.7
2017-03-19T13:45:01.685Z,8.7
2017-03-19T13:50:01.191Z,8.7
2017-03-19T13:55:01.908Z,8.7
2017-03-19T14:00:01.258Z,8.8
2017-03-19T14:05:01.220Z,8.8
2017-03-19T14:10:02.086Z,8.8
2017-03-19T14:15:01.448Z,8.8
2017-03-19T14:20:01.600Z,8.8
2017-03-19T14:25:01.602Z,8.9
2017-03-19T14:30:02.002Z,8.8
2017-03-19T14:35:01.755Z,8.9
2017-03-19T14:40:01.467Z,9
2017-03-19T14:45:02.138Z,9
2017-03-19T14:50:01.860Z,9
2017-03-19T14:55:01.488Z,9
2017-03-19T15:00:01.875Z,9
2017-03-19T15:05:01.611Z,9.1
2017-03-19T15:10:01.721Z,9.1
2017-03-19T15:15:02.112Z,9.2
2017-03-19T15:20:01.624Z,9.2
2017-03-19T15:25:01.515Z,9.2
2017-03-19T15:30:01.573Z,9.2
2017-03-19T15:35:01.613Z,9.2
2017-03-19T15:40:01.358Z,9.3
2017-03-19T15:45:01.797Z,9.3
2017-03-19T15:50:01.744Z,9.4
2017-03-19T15:55:02.103Z,9.4
2017-03-19T16:00:02.159Z,9.4
2017-03-19T16:05:01.704Z,9.5
2017-03-19T16:10:02.101Z,9.5
2017-03-19T16:15:01.865Z,9.5
2017-03-19T16:20:02.095Z,9.5
2017-03-19T16:25:01.561Z,9.5
2017-03-19T16:30:02.534Z,9.5
2017-03-19T16:35:01.604Z,9.6
2017-03-19T16:40:01.662Z,9.7
2017-03-19T16:45:01.673Z,9.8
2017-03-19T16:50:01.806Z,10
2017-03-19T16:55:01.518Z,10.2
2017-03-19T17:00:02.297Z,10.2
2017-03-19T17:05:02.224Z,10.2
2017-03-19T17:10:01.216Z,10.3
2017-03-19T17:15:01.807Z,10.4
2017-03-19T17:20:02.024Z,10.4
2017-03-19T17:25:01.958Z,10.4
2017-03-19T17:30:02.100Z,10.4
2017-03-19T17:35:01.991Z,10.4
2017-03-19T17:40:01.640Z,10.4
2017-03-19T17:45:02.140Z,10.4
2017-03-19T17:50:01.957Z,10.4
2017-03-19T17:55:02.093Z,10.4
2017-03-19T18:00:01.395Z,10.4
2017-03-19T18:05:01.632Z,10.4
2017-03-19T18:10:02.107Z,10.4
2017-03-19T18:15:01.554Z,10.4
2017-03-19T18:20:01.586Z,10.4
2017-03-19T18:25:01.754Z,10.4
2017-03-19T18:30:01.264Z,10.5
2017-03-19T18:35:01.218Z,10.5
2017-03-19T18:40:01.759Z,10.4
2017-03-19T18:45:01.515Z,10.4
2017-03-19T18:50:01.179Z,10.4
2017-03-19T18:55:02.006Z,10.4
2017-03-19T19:00:01.335Z,10.4
2017-03-19T19:05:01.421Z,10.4
2017-03-19T19:10:01.328Z,10.4
2017-03-19T19:15:01.612Z,10.4
2017-03-19T19:20:01.710Z,10.4
2017-03-19T19:25:02.708Z,10.4
2017-03-19T19:30:01.831Z,10.4
2017-03-19T19:35:01.399Z,10.4
2017-03-19T19:40:01.750Z,10.4
2017-03-19T19:45:01.347Z,10.4
2017-03-19T19:50:01.767Z,10.4
2017-03-19T19:55:01.453Z,10.4
2017-03-19T20:00:01.252Z,10.4
2017-03-19T20:05:01.187Z,10.4
2017-03-19T20:10:01.255Z,10.4
2017-03-19T20:15:02.127Z,10.4
2017-03-19T20:20:01.396Z,10.4
2017-03-19T20:25:01.848Z,10.4
2017-03-19T20:30:02.066Z,10.4
2017-03-19T20:35:01.969Z,10.4
2017-03-19T20:40:02.107Z,10.4
2017-03-19T20:45:01.730Z,10.4
2017-03-19T20:50:01.521Z,10.4
2017-03-19T20:55:01.989Z,10.4
2017-03-19T21:00:02.006Z,10.4
2017-03-19T21:05:02.074Z,10.4
2017-03-19T21:10:02.060Z,10.5
2017-03-19T21:15:01.305Z,10.5
2017-03-19T21:20:01.364Z,10.4
2017-03-19T21:25:01.565Z,10.5
2017-03-19T21:30:01.729Z,10.5
2017-03-19T21:35:01.424Z,10.5
2017-03-19T21:40:02.079Z,10.5
2017-03-19T21:45:01.764Z,10.5
2017-03-19T21:50:02.138Z,10.4
2017-03-19T21:55:02.372Z,10.4
2017-03-19T22:00:01.295Z,10.5
2017-03-19T22:05:01.637Z,10.4
2017-03-19T22:10:01.407Z,10.4
2017-03-19T22:15:01.846Z,10.4
2017-03-19T22:20:01.269Z,10.4
2017-03-19T22:25:01.517Z,10.4
2017-03-19T22:30:01.754Z,10.4
2017-03-19T22:35:01.709Z,10.4
2017-03-19T22:40:01.531Z,10.4
2017-03-19T22:45:01.874Z,10.4
2017-03-19T22:50:01.776Z,10.4
2017-03-19T22:55:01.847Z,10.4
2017-03-19T23:00:02.142Z,10.4
2017-03-19T23:05:01.823Z,10.4
2017-03-19T23:10:01.496Z,10.4
2017-03-19T23:15:02.138Z,10.4
2017-03-19T23:20:01.970Z,10.4
2017-03-19T23:25:01.938Z,10.4
2017-03-19T23:30:01.620Z,10.4
2017-03-19T23:35:02.117Z,10.4
2017-03-19T23:40:02.108Z,10.4
2017-03-19T23:45:01.225Z,10.4
2017-03-19T23:50:01.255Z,10.4
2017-03-19T23:55:02.033Z,10.4
